Bessie Ellen — ZITL7 — position and weather

sailwx.info

Track history (hours):
 
Tides and Currents Weather Stations Pressure Air Temp Water Temp Dewpoint Dewpoint Depression Visibility Wind Speed Wind Dir Waves Ship Positions

Bessie Ellen

Ship's website: http://bessie-ellen.com/blog/

Last reported at 2017-Mar-14 11:19 UTC. Time now 2017-Mar-26 15:07 UTC.
Position N 50°09' W 003°42'.
Warning: this ship's position is 12 days out of date.

Length 28 m.

Type: Sailing vessel. MMSI: 235005952.

Date/timePositionNaut miles runAvg speedWind from/ knotsBaromVisibWave heightAir tempDewpointWater temp
2017-Mar-14 11:19N 50°09' W 003°42'6 7.5
2017-Mar-14 10:34N 50°12' W 003°34'7 6.6
2017-Mar-14 09:34N 50°15' W 003°25'6 6.1
2017-Mar-14 08:34N 50°17' W 003°16'6 6.0
2017-Mar-14 07:33N 50°14' W 003°07'105 6.9
2017-Mar-13 16:29N 50°32' W 000°25'8 8.9
2017-Mar-13 15:33N 50°35' W 000°13'9 8.7
2017-Mar-13 14:34N 50°37' E 000°01'10 8.4
2017-Mar-13 13:21N 50°39' E 000°16'6 8.1
2017-Mar-13 12:34N 50°41' E 000°26'7 7.4
2017-Mar-13 11:33N 50°45' E 000°36'7 6.9
2017-Mar-13 10:31N 50°48' E 000°46'25 8.6
2017-Mar-13 07:34N 51°02' E 001°20'10 9.9
2017-Mar-13 06:34N 51°08' E 001°32'10 9.8
2017-Mar-13 05:33N 51°14' E 001°45'8 8.2
2017-Mar-13 04:34N 51°22' E 001°49'7 7.1
2017-Mar-13 03:33N 51°28' E 001°53'6 6.3
2017-Mar-13 02:32N 51°33' E 002°00'6 6.1
2017-Mar-13 01:32N 51°37' E 002°07'7 6.7
2017-Mar-13 00:33N 51°43' E 002°13'7 7.3
2017-Mar-12 23:33N 51°48' E 002°21'262 7.5
2017-Mar-11 12:27N 53°57' E 008°38'6 6.5
2017-Mar-11 11:32N 53°52' E 008°44'5 5.2
2017-Mar-11 10:33N 53°51' E 008°52'5 5.0
2017-Mar-11 09:33N 53°51' E 009°00'6 5.5
2017-Mar-11 08:32N 53°54' E 009°09'1 0.1
2017-Mar-11 02:13N 53°54' E 009°09'0 0.0
2017-Mar-11 01:29N 53°54' E 009°09'0 0.0
2017-Mar-10 23:19N 53°54' E 009°09'0 0.0
2017-Mar-10 22:28N 53°54' E 009°09'0 0.0
2017-Mar-10 21:22N 53°54' E 009°09'0 0.0
2017-Mar-10 20:22N 53°54' E 009°09'0 0.0
2017-Mar-10 19:22N 53°54' E 009°09'0 0.0
2017-Mar-10 18:31N 53°54' E 009°09'0 0.0
2017-Mar-10 17:19N 53°54' E 009°09'0 0.0
2017-Mar-10 16:22N 53°54' E 009°09'0 0.0
2017-Mar-10 15:28N 53°54' E 009°09'0 0.0
2017-Mar-10 14:28N 53°54' E 009°09'0 0.1
2017-Mar-10 13:33N 53°54' E 009°09'6 6.1
2017-Mar-10 12:33N 53°59' E 009°16'  
2017-Mar-04 13:31N 55°04' E 010°37'0 0.0
2017-Mar-04 11:25N 55°04' E 010°37'  
Track history (hours):
 
Tides and Currents Weather Stations Pressure Air Temp Water Temp Dewpoint Dewpoint Depression Visibility Wind Speed Wind Dir Waves Ship Positions

Bessie Ellen

Ship's website: http://bessie-ellen.com/blog/

Last reported at 2017-Mar-14 11:19 UTC. Time now 2017-Mar-26 15:07 UTC.
Position N 50°09' W 003°42'.
Warning: this ship's position is 12 days out of date.

Length 28 m.

Type: Sailing vessel. MMSI: 235005952.

Date/timePositionNaut miles runAvg speedWind from/ knotsBaromVisibWave heightAir tempDewpointWater temp
2017-Mar-14 11:19N 50°09' W 003°42'6 7.5
2017-Mar-14 10:34N 50°12' W 003°34'7 6.6
2017-Mar-14 09:34N 50°15' W 003°25'6 6.1
2017-Mar-14 08:34N 50°17' W 003°16'6 6.0
2017-Mar-14 07:33N 50°14' W 003°07'105 6.9
2017-Mar-13 16:29N 50°32' W 000°25'8 8.9
2017-Mar-13 15:33N 50°35' W 000°13'9 8.7
2017-Mar-13 14:34N 50°37' E 000°01'10 8.4
2017-Mar-13 13:21N 50°39' E 000°16'6 8.1
2017-Mar-13 12:34N 50°41' E 000°26'7 7.4
2017-Mar-13 11:33N 50°45' E 000°36'7 6.9
2017-Mar-13 10:31N 50°48' E 000°46'25 8.6
2017-Mar-13 07:34N 51°02' E 001°20'10 9.9
2017-Mar-13 06:34N 51°08' E 001°32'10 9.8
2017-Mar-13 05:33N 51°14' E 001°45'8 8.2
2017-Mar-13 04:34N 51°22' E 001°49'7 7.1
2017-Mar-13 03:33N 51°28' E 001°53'6 6.3
2017-Mar-13 02:32N 51°33' E 002°00'6 6.1
2017-Mar-13 01:32N 51°37' E 002°07'7 6.7
2017-Mar-13 00:33N 51°43' E 002°13'7 7.3
2017-Mar-12 23:33N 51°48' E 002°21'262 7.5
2017-Mar-11 12:27N 53°57' E 008°38'6 6.5
2017-Mar-11 11:32N 53°52' E 008°44'5 5.2
2017-Mar-11 10:33N 53°51' E 008°52'5 5.0
2017-Mar-11 09:33N 53°51' E 009°00'6 5.5
2017-Mar-11 08:32N 53°54' E 009°09'1 0.1
2017-Mar-11 02:13N 53°54' E 009°09'0 0.0
2017-Mar-11 01:29N 53°54' E 009°09'0 0.0
2017-Mar-10 23:19N 53°54' E 009°09'0 0.0
2017-Mar-10 22:28N 53°54' E 009°09'0 0.0
2017-Mar-10 21:22N 53°54' E 009°09'0 0.0
2017-Mar-10 20:22N 53°54' E 009°09'0 0.0
2017-Mar-10 19:22N 53°54' E 009°09'0 0.0
2017-Mar-10 18:31N 53°54' E 009°09'0 0.0
2017-Mar-10 17:19N 53°54' E 009°09'0 0.0
2017-Mar-10 16:22N 53°54' E 009°09'0 0.0
2017-Mar-10 15:28N 53°54' E 009°09'0 0.0
2017-Mar-10 14:28N 53°54' E 009°09'0 0.1
2017-Mar-10 13:33N 53°54' E 009°09'6 6.1
2017-Mar-10 12:33N 53°59' E 009°16'  
2017-Mar-04 13:31N 55°04' E 010°37'0 0.0
2017-Mar-04 11:25N 55°04' E 010°37'  

Dump ship's entire track history